Latest Weather Observations for Giles*

IDD60801

Issued at 3:05 pm CST Friday 28 November 2014 (issued every 30 minutes, with the page automatically refreshed every 10 minutes)

About weather observations | Map of weather stations | Latest weather observations for NT | Other Formats
Station Details ID: 013017 Name: GILES METEOROLOGICAL OFFICE Lat: -25.03 Lon: 128.30 Height: 598.0 m
Data from the previous 72 hours. | See also: Recent months at Giles*

* Giles observations are collected in the South Australia time zone, which includes daylight saving in the summer period. Therefore, Rain since 9am value is with respect to South Australia local time.

Date/Time
CST
Temp
°C
App
Temp
°C
Dew
Point
Rel
Hum
%
Delta-T
°C
Wind Press
QNH
hPa
Press
MSL
hPa
Rain
since 9 am
mm
Dir
 
Spd
km/h
Gust
km/h
Spd
kts
Gust
kts
28/03:00pm 30.5 28.9 12.7 33 10.8 ENE 13 20 7 11 1012.8 - 0.4
28/02:30pm 28.1 28.1 14.3 42 8.5 E 7 13 4 7 1013.5 - 0.4
28/02:00pm 27.3 27.2 13.9 43 8.2 NNE 7 13 4 7 1014.0 1009.9 0.4
28/01:30pm 26.4 26.8 14.7 48 7.2 NNE 6 9 3 5 1014.6 - 0.4
28/01:00pm 25.1 24.2 15.8 56 5.8 NNE 15 20 8 11 1015.1 - 0.4
28/12:30pm 24.0 22.4 17.4 66 4.2 N 22 32 12 17 1015.8 - 0.2
28/12:00pm 26.6 22.5 13.9 45 7.7 N 28 39 15 21 1015.9 - 0.2
28/11:30am 28.0 24.0 11.8 36 9.6 NNE 24 32 13 17 1016.1 - 0.2
28/11:00am 26.2 21.3 14.4 48 7.2 N 33 46 18 25 1016.1 1012.0 0.2
28/10:30am 28.0 24.4 12.9 39 9.1 N 24 44 13 24 1016.4 - 0.2
28/10:00am 26.1 22.6 15.5 52 6.6 NNE 28 37 15 20 1016.5 - 0.2
28/09:30am 27.5 26.4 16.3 50 7.1 N 17 20 9 11 1016.1 - 0.2
28/09:00am 25.7 26.9 16.9 58 5.6 WNW 6 9 3 5 1016.2 - 0.0
28/08:30am 24.5 25.8 17.1 63 4.7 NE 6 9 3 5 1016.2 - 0.0
28/08:00am 23.5 24.9 17.7 70 3.7 E 7 13 4 7 1015.8 1011.7 0.2
28/07:30am 23.3 23.4 17.5 70 3.7 E 13 17 7 9 1015.4 - 0.2
28/07:00am 23.0 23.3 17.8 72 3.3 E 13 19 7 10 1015.0 - 0.2
28/06:30am 22.8 23.1 17.8 73 3.2 ESE 13 17 7 9 1014.8 - 0.2
28/06:00am 23.0 23.4 16.4 66 4.1 SE 9 13 5 7 1014.5 - 0.2
28/05:30am 23.9 25.8 15.7 60 5.1 CALM 0 0 0 0 1014.0 - 0.2
28/05:00am 23.5 24.4 15.2 59 5.1 W 4 11 2 6 1013.4 1009.4 0.2
28/04:30am 23.5 23.9 15.4 60 5.0 W 7 13 4 7 1013.0 - 0.2
28/04:00am 23.7 24.3 15.4 59 5.1 NNW 6 7 3 4 1012.4 - 0.2
28/03:30am 23.8 23.4 14.2 55 5.8 NW 9 13 5 7 1012.6 - 0.2
28/03:00am 24.9 23.1 13.2 48 7.0 NNE 15 17 8 9 1012.6 - 0.2
28/02:30am 25.3 23.2 12.5 45 7.6 NNE 15 26 8 14 1012.9 - 0.2
28/02:00am 24.2 24.4 13.1 50 6.6 ESE 4 15 2 8 1013.4 1009.4 0.2
28/01:30am 22.3 24.3 16.9 71 3.4 W 2 9 1 5 1013.7 - 0.2
28/01:00am 22.2 23.4 17.3 74 3.1 W 7 11 4 6 1014.5 - 0.2
28/12:30am 22.7 23.8 17.0 70 3.6 NNE 7 15 4 8 1015.3 - 0.2
28/12:00am 22.4 22.8 17.2 72 3.3 N 11 17 6 9 1016.2 - 0.2
 
Date/Time
CST
Temp
°C
App
Temp
°C
Dew
Point
Rel
Hum
%
Delta-T
°C
Wind Press
QNH
hPa
Press
MSL
hPa
Rain
since 9 am
mm
Dir
 
Spd
km/h
Gust
km/h
Spd
kts
Gust
kts
27/11:30pm 22.5 24.0 18.0 75 2.9 N 7 13 4 7 1016.7 - 0.2
27/11:00pm 23.2 22.3 16.8 67 4.0 N 17 28 9 15 1017.2 1013.2 0.2
27/10:30pm 24.0 22.2 15.6 59 5.2 N 19 24 10 13 1016.9 - 0.2
27/10:00pm 24.1 22.5 16.1 61 5.0 N 19 22 10 12 1016.8 - 0.2
27/09:30pm 25.2 24.0 15.1 53 6.2 N 15 20 8 11 1016.2 - 0.2
27/09:00pm 24.9 24.2 15.5 56 5.8 E 13 17 7 9 1015.9 - 0.2
27/08:30pm 25.3 22.8 15.1 53 6.3 NE 22 32 12 17 1015.2 - 0.2
27/08:00pm 25.7 22.3 14.8 51 6.7 NE 26 35 14 19 1014.9 1010.9 0.2
27/07:30pm 26.2 24.1 15.2 50 6.8 NNE 20 35 11 19 1014.3 - 0.2
27/07:00pm 25.8 21.5 15.3 52 6.5 NNE 32 44 17 24 1013.5 - 0.2
27/06:30pm 26.5 22.3 14.6 48 7.3 ENE 30 39 16 21 1012.9 - 0.2
27/06:00pm 25.0 21.4 17.3 62 4.9 NNE 32 43 17 23 1012.8 - 0.2
27/05:54pm 25.1 21.8 17.1 61 5.1 NNE 30 43 16 23 1012.8 - 0.2
27/05:30pm 30.1 26.0 12.8 34 10.5 NNW 26 43 14 23 1012.3 - 0.0
27/05:00pm 29.0 24.2 13.0 37 9.7 NNW 30 44 16 24 1011.6 1007.5 0.0
27/04:56pm 30.2 25.7 12.7 34 10.6 NNW 28 44 15 24 1011.5 - 0.0
27/04:30pm 33.9 32.4 9.0 21 14.5 ENE 7 13 4 7 1011.1 - 0.0
27/04:00pm 34.0 29.1 8.6 21 14.7 NNE 24 35 13 19 1011.5 - 0.0
27/03:30pm 35.3 30.5 8.7 19 15.5 NNE 24 30 13 16 1011.7 - 0.0
27/03:00pm 34.8 31.0 8.9 20 15.1 NE 19 35 10 19 1012.5 - 0.0
27/02:30pm 35.3 31.0 9.2 20 15.3 NE 22 35 12 19 1012.9 - 0.0
27/02:00pm 34.6 30.7 9.3 21 14.8 NE 20 32 11 17 1013.5 1009.5 0.0
27/01:30pm 34.0 28.0 8.8 21 14.6 N 30 43 16 23 1014.3 - 0.0
27/01:00pm 33.1 27.8 9.7 23 13.7 NE 28 41 15 22 1014.5 - 0.0
27/12:30pm 34.4 28.6 8.1 19 15.1 NNE 28 44 15 24 1014.9 - 0.0
27/12:00pm 33.4 27.9 7.4 20 14.7 NNE 26 41 14 22 1015.1 - 0.0
27/11:47am 33.3 27.4 7.5 20 14.6 NNE 28 46 15 25 1015.4 - 0.0
27/11:30am 32.4 26.5 7.6 21 14.0 NE 28 44 15 24 1015.9 - 0.0
27/11:03am 31.6 25.9 8.2 23 13.3 ENE 28 46 15 25 1016.1 - 0.0
27/11:00am 31.2 25.1 8.3 24 13.0 ENE 30 46 16 25 1016.1 1012.0 0.0
27/10:30am 31.5 26.4 9.3 25 12.8 ENE 26 41 14 22 1016.3 - 0.0
27/10:00am 30.1 25.3 10.4 29 11.5 NE 26 37 14 20 1016.4 - 0.0
27/09:30am 28.6 22.7 10.3 32 10.6 ENE 32 46 17 25 1016.6 - 0.0
27/09:00am 28.6 23.1 10.5 32 10.5 ENE 30 44 16 24 1016.6 - 0.0
27/08:30am 28.5 24.6 12.2 36 9.7 ENE 24 33 13 18 1016.9 - 0.0
27/08:00am 26.7 24.0 12.8 42 8.3 NE 19 26 10 14 1017.0 1013.0 0.0
27/07:30am 26.7 23.8 12.4 41 8.5 ENE 19 32 10 17 1016.7 - 0.0
27/07:00am 25.7 25.0 13.2 46 7.5 E 9 20 5 11 1016.3 - 0.0
27/06:30am 23.6 22.2 12.3 49 6.6 E 11 15 6 8 1016.0 - 0.0
27/06:00am 23.6 22.9 12.1 48 6.7 ENE 7 11 4 6 1015.5 - 0.0
27/05:30am 23.4 21.3 8.4 38 8.2 E 9 13 5 7 1015.2 - 0.0
27/05:00am 25.5 23.5 11.4 41 8.2 NE 13 22 7 12 1014.7 1010.6 0.0
27/04:30am 24.0 19.3 0.8 21 11.1 E 15 20 8 11 1014.2 - 0.0
27/04:00am 23.6 17.6 -7.1 12 12.6 E 17 20 9 11 1014.4 - 0.0
27/03:30am 24.1 18.1 -6.7 12 12.8 E 17 20 9 11 1014.0 - 0.0
27/03:00am 25.0 19.0 -6.7 12 13.3 ESE 17 22 9 12 1013.9 - 0.0
27/02:30am 25.6 19.6 -6.6 11 13.6 ESE 17 20 9 11 1013.6 - 0.0
27/02:00am 26.8 21.2 -6.3 11 14.2 ESE 15 19 8 10 1014.0 1009.9 0.0
27/01:30am 27.3 21.7 -6.4 10 14.5 ESE 15 24 8 13 1014.1 - 0.0
27/01:00am 27.9 21.3 -6.8 10 14.9 SE 20 30 11 16 1014.0 - 0.0
27/12:30am 28.4 22.1 -5.7 10 15.0 SE 19 26 10 14 1014.7 - 0.0
27/12:00am 28.9 22.3 -7.0 9 15.5 SSE 20 30 11 16 1014.9 - 0.0
 
Date/Time
CST
Temp
°C
App
Temp
°C
Dew
Point
Rel
Hum
%
Delta-T
°C
Wind Press
QNH
hPa
Press
MSL
hPa
Rain
since 9 am
mm
Dir
 
Spd
km/h
Gust
km/h
Spd
kts
Gust
kts
26/11:30pm 29.1 22.2 -6.4 9 15.5 SE 22 30 12 16 1015.0 - 0.0
26/11:00pm 29.0 22.7 -4.4 11 15.1 SSE 20 28 11 15 1015.2 1011.2 0.0
26/10:30pm 29.1 22.6 -2.6 12 14.8 SSE 22 32 12 17 1015.1 - 0.0
26/10:00pm 29.7 21.8 -1.9 13 15.0 S 30 44 16 24 1014.8 - 0.0
26/09:30pm 29.8 24.4 -1.2 13 14.9 S 17 28 9 15 1014.8 - 0.0
26/09:00pm 29.8 25.3 -0.3 14 14.7 S 13 15 7 8 1014.8 - 0.0
26/08:30pm 30.0 25.6 0.6 15 14.6 S 13 17 7 9 1014.5 - 0.0
26/08:00pm 30.3 25.5 0.5 14 14.8 SSE 15 20 8 11 1014.3 1010.2 0.0
26/07:30pm 30.8 24.6 -0.3 13 15.3 SSE 22 30 12 16 1014.0 - 0.0
26/07:00pm 31.1 24.6 0.0 13 15.4 SSE 24 32 13 17 1014.0 - 0.0
26/06:30pm 31.6 25.1 0.0 13 15.7 SE 24 33 13 18 1013.7 - 0.0
26/06:00pm 32.0 25.9 0.2 13 15.9 SE 22 35 12 19 1013.5 - 0.0
26/05:30pm 32.3 26.4 1.7 14 15.7 SSE 22 28 12 15 1013.5 - 0.0
26/05:00pm 33.3 27.4 1.8 13 16.3 SSE 22 33 12 18 1013.7 1009.7 0.0
26/04:30pm 33.8 28.9 2.2 13 16.5 SSE 17 28 9 15 1014.0 - 0.0
26/04:00pm 32.9 28.6 3.1 15 15.7 SE 15 24 8 13 1014.4 - 0.0
26/03:30pm 33.3 30.0 4.7 16 15.5 E 11 24 6 13 1014.6 - 0.0
26/03:00pm 32.0 29.7 7.5 21 13.8 NE 9 13 5 7 1014.9 - 0.0
26/02:30pm 31.6 28.9 7.3 22 13.6 NNE 11 19 6 10 1015.4 - 0.0
26/02:00pm 31.1 28.6 6.4 21 13.6 ENE 9 17 5 9 1015.8 1011.7 0.0
26/01:30pm 31.7 26.8 5.0 18 14.4 SE 20 24 11 13 1016.1 - 0.0
26/01:00pm 31.7 27.7 2.9 16 15.0 E 13 30 7 16 1016.6 - 0.0
26/12:30pm 30.2 26.9 2.5 17 14.2 ENE 9 20 5 11 1017.4 - 0.0
26/12:00pm 29.2 26.5 2.5 18 13.6 WNW 6 11 3 6 1018.0 - 0.0
26/11:30am 28.6 25.2 1.9 18 13.4 ENE 9 17 5 9 1018.6 - 0.0
26/11:00am 27.5 23.4 2.1 19 12.7 NE 13 22 7 12 1018.7 1014.7 0.0
26/10:30am 28.2 21.0 0.7 17 13.5 E 28 35 15 19 1018.2 - 0.0
26/10:05am 28.3 21.0 0.1 16 13.7 E 28 46 15 25 1017.9 - 0.0
26/10:00am 28.1 19.9 -0.8 15 13.8 E 32 46 17 25 1017.8 - 0.0
26/09:30am 27.5 19.5 0.3 17 13.2 ENE 32 44 17 24 1017.7 - 0.0
26/09:00am 26.7 18.6 0.0 17 12.8 ENE 32 48 17 26 1017.5 - 0.0
26/08:56am 26.7 19.0 -0.4 17 12.9 E 30 48 16 26 1017.5 - 0.0
26/08:30am 25.7 19.8 2.0 21 11.7 ENE 22 39 12 21 1017.2 - 0.0
26/08:00am 25.1 19.4 2.9 23 11.1 E 22 32 12 17 1016.9 1012.9 0.0
26/07:30am 24.8 19.6 3.3 24 10.8 E 20 32 11 17 1016.8 - 0.0
26/07:00am 23.9 19.7 5.7 31 9.5 E 17 24 9 13 1016.6 - 0.0
26/06:30am 23.1 19.0 6.4 34 8.8 E 17 24 9 13 1016.5 - 0.0
26/06:00am 22.5 19.5 7.6 38 8.0 ESE 13 19 7 10 1016.3 - 0.0
26/05:30am 22.4 19.6 8.4 40 7.6 E 13 17 7 9 1016.2 - 0.0
26/05:00am 22.4 19.4 9.1 42 7.3 ESE 15 19 8 10 1016.0 1011.9 0.0
26/04:30am 22.8 19.9 9.7 43 7.3 E 15 24 8 13 1015.5 - 0.0
26/04:00am 22.6 20.4 10.8 47 6.7 E 13 17 7 9 1015.5 - 0.0
26/03:30am 22.1 20.0 12.3 53 5.7 E 15 19 8 10 1015.2 - 0.0
26/03:00am 22.1 20.7 12.1 53 5.8 E 11 15 6 8 1015.4 - 0.0
26/02:30am 22.6 21.0 11.7 50 6.3 ESE 11 15 6 8 1015.3 - 0.0
26/02:00am 23.1 20.8 11.7 48 6.6 E 15 19 8 10 1015.4 1011.4 0.0
26/01:30am 23.0 21.6 12.2 50 6.3 ESE 11 15 6 8 1015.7 - 0.0
26/01:00am 23.4 22.1 12.5 50 6.4 E 11 15 6 8 1015.8 - 0.0
26/12:30am 23.8 22.0 12.2 48 6.8 E 13 17 7 9 1015.7 - 0.0
26/12:00am 24.3 22.5 12.2 46 7.1 SSE 13 17 7 9 1015.9 - 0.0
 
Date/Time
CST
Temp
°C
App
Temp
°C
Dew
Point
Rel
Hum
%
Delta-T
°C
Wind Press
QNH
hPa
Press
MSL
hPa
Rain
since 9 am
mm
Dir
 
Spd
km/h
Gust
km/h
Spd
kts
Gust
kts
25/11:30pm 25.0 22.2 11.4 42 7.9 SSE 17 22 9 12 1015.8 - 0.0
25/11:00pm 25.2 22.0 11.4 42 8.0 SSE 19 24 10 13 1015.5 1011.5 0.0
25/10:30pm 25.9 22.5 10.4 37 8.9 E 19 24 10 13 1015.9 - 0.0
25/10:00pm 25.7 22.7 10.8 39 8.6 ESE 17 22 9 12 1016.1 - 0.0
25/09:30pm 26.0 20.8 10.3 37 9.0 E 28 41 15 22 1016.1 - 0.0
25/09:00pm 25.8 20.6 11.6 41 8.3 E 30 43 16 23 1016.5 - 0.0
25/08:30pm 26.6 22.3 10.9 37 9.1 ENE 24 41 13 22 1016.5 - 0.0
25/08:00pm 27.2 23.2 10.6 35 9.6 NNE 22 32 12 17 1016.2 1012.1 0.0
25/07:30pm 28.5 25.1 9.1 29 11.0 NNE 17 22 9 12 1016.1 - 0.0
25/07:00pm 28.9 26.3 9.5 29 11.1 NNE 13 15 7 8 1016.9 - 0.0
25/06:30pm 29.2 26.4 8.4 27 11.7 NNW 13 20 7 11 1016.0 - 0.0
25/06:00pm 30.6 27.4 7.0 22 13.1 N 13 20 7 11 1014.7 - 0.0
25/05:30pm 30.5 24.2 7.4 23 12.9 N 30 39 16 21 1013.9 - 0.0
25/05:16pm 30.9 25.0 7.5 23 13.1 N 28 37 15 20 1013.7 - 0.0
25/05:00pm 33.4 30.4 3.9 15 15.8 SW 9 13 5 7 1014.0 1009.9 0.0
25/04:30pm 33.6 27.3 4.0 15 15.9 S 26 37 14 20 1013.9 - 0.0
25/04:00pm 32.6 26.5 6.8 20 14.4 SSW 28 35 15 19 1014.2 - 0.0
25/03:30pm 34.3 31.5 5.1 16 16.0 E 9 19 5 10 1014.3 - 0.0
25/03:00pm 34.7 29.5 5.6 16 16.1 NE 22 32 12 17 1014.6 - 0.0
25/02:30pm 34.9 31.6 4.7 15 16.5 SSE 11 17 6 9 1015.0 - 0.0

Other Formats:

Comma delimited format used in spreadsheet applications
http://www.bom.gov.au/fwo/IDD60801/IDD60801.94461.axf

JavaScript Object Notation format (JSON) in row-major order
http://www.bom.gov.au/fwo/IDD60801/IDD60801.94461.json